sensor_id;sensor_type;location;lat;lon;timestamp;P1;durP1;ratioP1;P2;durP2;ratioP2
5416;SDS011;2731;50.754;12.990;2023-02-03T00:01:52;3.05;;;1.65;;
5416;SDS011;2731;50.754;12.990;2023-02-03T00:04:18;6.25;;;1.83;;
5416;SDS011;2731;50.754;12.990;2023-02-03T00:06:45;5.78;;;1.92;;
5416;SDS011;2731;50.754;12.990;2023-02-03T00:09:13;11.85;;;2.00;;
5416;SDS011;2731;50.754;12.990;2023-02-03T00:11:42;4.45;;;1.63;;
5416;SDS011;2731;50.754;12.990;2023-02-03T00:14:08;4.13;;;1.70;;
5416;SDS011;2731;50.754;12.990;2023-02-03T00:16:34;8.65;;;1.88;;
5416;SDS011;2731;50.754;12.990;2023-02-03T00:19:00;4.97;;;1.73;;
5416;SDS011;2731;50.754;12.990;2023-02-03T00:21:26;4.50;;;1.58;;
5416;SDS011;2731;50.754;12.990;2023-02-03T00:23:52;3.63;;;1.52;;
5416;SDS011;2731;50.754;12.990;2023-02-03T00:26:18;4.07;;;1.08;;
5416;SDS011;2731;50.754;12.990;2023-02-03T00:28:44;1.80;;;1.20;;
5416;SDS011;2731;50.754;12.990;2023-02-03T00:31:19;4.93;;;1.17;;
5416;SDS011;2731;50.754;12.990;2023-02-03T00:33:47;4.05;;;0.98;;
5416;SDS011;2731;50.754;12.990;2023-02-03T00:36:13;4.05;;;1.15;;
5416;SDS011;2731;50.754;12.990;2023-02-03T00:38:39;3.75;;;0.68;;
5416;SDS011;2731;50.754;12.990;2023-02-03T00:41:06;1.17;;;0.70;;
5416;SDS011;2731;50.754;12.990;2023-02-03T00:43:32;1.27;;;0.73;;
5416;SDS011;2731;50.754;12.990;2023-02-03T00:45:59;2.65;;;1.25;;
5416;SDS011;2731;50.754;12.990;2023-02-03T00:48:25;2.25;;;0.70;;
5416;SDS011;2731;50.754;12.990;2023-02-03T00:50:51;7.05;;;1.05;;
5416;SDS011;2731;50.754;12.990;2023-02-03T00:53:18;5.43;;;1.40;;
5416;SDS011;2731;50.754;12.990;2023-02-03T00:55:47;1.38;;;0.90;;
5416;SDS011;2731;50.754;12.990;2023-02-03T00:58:14;2.70;;;0.80;;
5416;SDS011;2731;50.754;12.990;2023-02-03T01:00:41;1.25;;;0.65;;
5416;SDS011;2731;50.754;12.990;2023-02-03T01:03:09;2.58;;;1.40;;
5416;SDS011;2731;50.754;12.990;2023-02-03T01:05:36;3.83;;;0.80;;
5416;SDS011;2731;50.754;12.990;2023-02-03T01:08:02;1.92;;;0.82;;
5416;SDS011;2731;50.754;12.990;2023-02-03T01:10:28;4.95;;;1.63;;
5416;SDS011;2731;50.754;12.990;2023-02-03T01:12:55;1.98;;;0.75;;
5416;SDS011;2731;50.754;12.990;2023-02-03T01:15:22;2.58;;;1.00;;
5416;SDS011;2731;50.754;12.990;2023-02-03T01:17:49;2.00;;;1.35;;
5416;SDS011;2731;50.754;12.990;2023-02-03T01:20:15;1.42;;;1.00;;
5416;SDS011;2731;50.754;12.990;2023-02-03T01:22:41;1.38;;;0.90;;
5416;SDS011;2731;50.754;12.990;2023-02-03T01:25:07;1.38;;;0.80;;
5416;SDS011;2731;50.754;12.990;2023-02-03T01:27:33;1.10;;;1.00;;
5416;SDS011;2731;50.754;12.990;2023-02-03T01:29:59;1.20;;;1.00;;
5416;SDS011;2731;50.754;12.990;2023-02-03T01:32:26;0.80;;;0.52;;
5416;SDS011;2731;50.754;12.990;2023-02-03T01:34:53;1.67;;;0.70;;
5416;SDS011;2731;50.754;12.990;2023-02-03T01:37:20;0.95;;;0.73;;
5416;SDS011;2731;50.754;12.990;2023-02-03T01:39:48;2.22;;;0.70;;
5416;SDS011;2731;50.754;12.990;2023-02-03T01:42:15;1.02;;;0.85;;
5416;SDS011;2731;50.754;12.990;2023-02-03T01:44:44;0.93;;;0.80;;
5416;SDS011;2731;50.754;12.990;2023-02-03T01:47:46;0.63;;;0.60;;
5416;SDS011;2731;50.754;12.990;2023-02-03T01:52:31;2.95;;;1.23;;
5416;SDS011;2731;50.754;12.990;2023-02-03T01:54:57;1.23;;;1.08;;
5416;SDS011;2731;50.754;12.990;2023-02-03T01:57:35;1.45;;;1.00;;
5416;SDS011;2731;50.754;12.990;2023-02-03T02:00:05;2.38;;;1.02;;
5416;SDS011;2731;50.754;12.990;2023-02-03T02:02:32;3.30;;;1.35;;
5416;SDS011;2731;50.754;12.990;2023-02-03T02:07:30;1.77;;;1.48;;
5416;SDS011;2731;50.754;12.990;2023-02-03T02:09:57;2.83;;;1.77;;
5416;SDS011;2731;50.754;12.990;2023-02-03T02:12:24;1.83;;;1.40;;
5416;SDS011;2731;50.754;12.990;2023-02-03T02:14:50;2.03;;;1.35;;
5416;SDS011;2731;50.754;12.990;2023-02-03T02:33:13;2.00;;;1.58;;
5416;SDS011;2731;50.754;12.990;2023-02-03T02:35:46;2.73;;;2.13;;
5416;SDS011;2731;50.754;12.990;2023-02-03T02:39:02;2.28;;;1.75;;
5416;SDS011;2731;50.754;12.990;2023-02-03T02:41:03;2.40;;;1.70;;
5416;SDS011;2731;50.754;12.990;2023-02-03T02:43:42;2.47;;;1.92;;
5416;SDS011;2731;50.754;12.990;2023-02-03T02:46:12;2.83;;;2.28;;
5416;SDS011;2731;50.754;12.990;2023-02-03T02:51:05;1.85;;;1.50;;
5416;SDS011;2731;50.754;12.990;2023-02-03T02:53:35;2.30;;;1.58;;
5416;SDS011;2731;50.754;12.990;2023-02-03T02:56:05;3.25;;;2.13;;
5416;SDS011;2731;50.754;12.990;2023-02-03T02:58:34;3.67;;;1.92;;
5416;SDS011;2731;50.754;12.990;2023-02-03T03:01:02;2.35;;;1.92;;
5416;SDS011;2731;50.754;12.990;2023-02-03T03:03:28;3.05;;;2.00;;
5416;SDS011;2731;50.754;12.990;2023-02-03T03:06:10;3.75;;;1.98;;
5416;SDS011;2731;50.754;12.990;2023-02-03T03:11:03;2.97;;;2.17;;
5416;SDS011;2731;50.754;12.990;2023-02-03T03:13:34;2.25;;;1.73;;
5416;SDS011;2731;50.754;12.990;2023-02-03T03:16:02;2.75;;;1.95;;
5416;SDS011;2731;50.754;12.990;2023-02-03T03:18:40;3.42;;;2.22;;
5416;SDS011;2731;50.754;12.990;2023-02-03T03:21:21;2.42;;;1.75;;
5416;SDS011;2731;50.754;12.990;2023-02-03T03:23:49;2.27;;;1.70;;
5416;SDS011;2731;50.754;12.990;2023-02-03T03:28:50;2.83;;;2.03;;
5416;SDS011;2731;50.754;12.990;2023-02-03T03:31:18;3.05;;;1.98;;
5416;SDS011;2731;50.754;12.990;2023-02-03T03:33:46;3.00;;;2.22;;
5416;SDS011;2731;50.754;12.990;2023-02-03T03:36:29;2.92;;;2.05;;
5416;SDS011;2731;50.754;12.990;2023-02-03T03:44:02;3.15;;;1.90;;
5416;SDS011;2731;50.754;12.990;2023-02-03T03:46:30;3.50;;;2.50;;
5416;SDS011;2731;50.754;12.990;2023-02-03T03:49:02;3.97;;;2.72;;
5416;SDS011;2731;50.754;12.990;2023-02-03T03:51:30;3.05;;;2.63;;
5416;SDS011;2731;50.754;12.990;2023-02-03T03:54:00;3.80;;;2.88;;
5416;SDS011;2731;50.754;12.990;2023-02-03T03:56:31;4.72;;;2.60;;
5416;SDS011;2731;50.754;12.990;2023-02-03T03:58:59;4.57;;;3.30;;
5416;SDS011;2731;50.754;12.990;2023-02-03T04:01:25;3.60;;;2.63;;
5416;SDS011;2731;50.754;12.990;2023-02-03T04:03:54;4.88;;;3.15;;
5416;SDS011;2731;50.754;12.990;2023-02-03T04:06:22;5.60;;;4.00;;
5416;SDS011;2731;50.754;12.990;2023-02-03T04:08:50;4.43;;;3.20;;
5416;SDS011;2731;50.754;12.990;2023-02-03T04:11:19;5.70;;;4.25;;
5416;SDS011;2731;50.754;12.990;2023-02-03T04:14:03;5.47;;;3.95;;
5416;SDS011;2731;50.754;12.990;2023-02-03T04:16:29;5.22;;;4.25;;
5416;SDS011;2731;50.754;12.990;2023-02-03T04:18:56;7.85;;;4.03;;
5416;SDS011;2731;50.754;12.990;2023-02-03T04:21:22;5.57;;;4.20;;
5416;SDS011;2731;50.754;12.990;2023-02-03T04:23:49;5.30;;;4.20;;
5416;SDS011;2731;50.754;12.990;2023-02-03T04:26:18;7.25;;;4.80;;
5416;SDS011;2731;50.754;12.990;2023-02-03T04:28:45;7.95;;;4.72;;
5416;SDS011;2731;50.754;12.990;2023-02-03T04:31:12;7.75;;;5.30;;
5416;SDS011;2731;50.754;12.990;2023-02-03T04:33:38;7.50;;;4.85;;
5416;SDS011;2731;50.754;12.990;2023-02-03T04:36:04;6.78;;;4.35;;
5416;SDS011;2731;50.754;12.990;2023-02-03T04:38:31;7.97;;;4.80;;
5416;SDS011;2731;50.754;12.990;2023-02-03T04:40:57;10.48;;;6.18;;
5416;SDS011;2731;50.754;12.990;2023-02-03T04:43:23;7.57;;;5.55;;
5416;SDS011;2731;50.754;12.990;2023-02-03T04:45:49;8.25;;;6.28;;
5416;SDS011;2731;50.754;12.990;2023-02-03T04:48:15;8.10;;;5.88;;
5416;SDS011;2731;50.754;12.990;2023-02-03T04:50:42;8.85;;;6.32;;
5416;SDS011;2731;50.754;12.990;2023-02-03T04:53:09;13.68;;;6.72;;
5416;SDS011;2731;50.754;12.990;2023-02-03T04:55:35;10.63;;;6.32;;
5416;SDS011;2731;50.754;12.990;2023-02-03T04:58:02;9.07;;;6.47;;
5416;SDS011;2731;50.754;12.990;2023-02-03T05:00:28;9.93;;;6.82;;
5416;SDS011;2731;50.754;12.990;2023-02-03T05:02:54;13.98;;;6.93;;
5416;SDS011;2731;50.754;12.990;2023-02-03T05:05:20;8.63;;;6.25;;
5416;SDS011;2731;50.754;12.990;2023-02-03T05:07:48;11.13;;;6.50;;
5416;SDS011;2731;50.754;12.990;2023-02-03T05:10:14;14.27;;;6.88;;
5416;SDS011;2731;50.754;12.990;2023-02-03T05:12:40;8.13;;;5.63;;
5416;SDS011;2731;50.754;12.990;2023-02-03T05:15:09;9.82;;;6.50;;
5416;SDS011;2731;50.754;12.990;2023-02-03T05:17:35;9.90;;;5.75;;
5416;SDS011;2731;50.754;12.990;2023-02-03T05:20:05;6.65;;;5.03;;
5416;SDS011;2731;50.754;12.990;2023-02-03T05:22:32;7.97;;;6.32;;
5416;SDS011;2731;50.754;12.990;2023-02-03T05:25:01;9.70;;;6.55;;
5416;SDS011;2731;50.754;12.990;2023-02-03T05:27:32;7.40;;;4.63;;
5416;SDS011;2731;50.754;12.990;2023-02-03T05:29:58;8.07;;;5.57;;
5416;SDS011;2731;50.754;12.990;2023-02-03T05:32:24;8.80;;;6.50;;
5416;SDS011;2731;50.754;12.990;2023-02-03T05:34:51;11.63;;;6.90;;
5416;SDS011;2731;50.754;12.990;2023-02-03T05:37:17;8.85;;;5.75;;
5416;SDS011;2731;50.754;12.990;2023-02-03T05:39:43;7.70;;;5.75;;
5416;SDS011;2731;50.754;12.990;2023-02-03T05:42:10;8.98;;;5.55;;
5416;SDS011;2731;50.754;12.990;2023-02-03T05:44:36;7.15;;;5.13;;
5416;SDS011;2731;50.754;12.990;2023-02-03T05:47:04;9.18;;;6.28;;
5416;SDS011;2731;50.754;12.990;2023-02-03T05:49:30;13.10;;;6.32;;
5416;SDS011;2731;50.754;12.990;2023-02-03T05:51:57;9.98;;;5.80;;
5416;SDS011;2731;50.754;12.990;2023-02-03T05:54:23;10.30;;;4.65;;
5416;SDS011;2731;50.754;12.990;2023-02-03T05:56:51;8.88;;;6.20;;
5416;SDS011;2731;50.754;12.990;2023-02-03T05:59:19;7.88;;;4.97;;
5416;SDS011;2731;50.754;12.990;2023-02-03T06:01:46;6.65;;;5.20;;
5416;SDS011;2731;50.754;12.990;2023-02-03T06:04:14;8.65;;;4.50;;
5416;SDS011;2731;50.754;12.990;2023-02-03T06:06:42;9.30;;;4.80;;
5416;SDS011;2731;50.754;12.990;2023-02-03T06:09:10;6.63;;;4.68;;
5416;SDS011;2731;50.754;12.990;2023-02-03T06:11:37;6.80;;;4.78;;
5416;SDS011;2731;50.754;12.990;2023-02-03T06:14:08;7.30;;;4.43;;
5416;SDS011;2731;50.754;12.990;2023-02-03T06:16:36;9.27;;;4.78;;
5416;SDS011;2731;50.754;12.990;2023-02-03T06:19:05;6.68;;;3.70;;
5416;SDS011;2731;50.754;12.990;2023-02-03T06:21:37;7.50;;;4.45;;
5416;SDS011;2731;50.754;12.990;2023-02-03T06:24:05;8.80;;;6.22;;
5416;SDS011;2731;50.754;12.990;2023-02-03T06:26:35;7.00;;;3.78;;
5416;SDS011;2731;50.754;12.990;2023-02-03T06:29:02;7.10;;;3.92;;
5416;SDS011;2731;50.754;12.990;2023-02-03T06:31:28;5.35;;;4.20;;
5416;SDS011;2731;50.754;12.990;2023-02-03T06:33:54;4.82;;;3.38;;
5416;SDS011;2731;50.754;12.990;2023-02-03T06:36:21;9.50;;;3.90;;
5416;SDS011;2731;50.754;12.990;2023-02-03T06:38:48;5.40;;;3.28;;
5416;SDS011;2731;50.754;12.990;2023-02-03T06:41:14;4.05;;;3.22;;
5416;SDS011;2731;50.754;12.990;2023-02-03T06:43:40;7.47;;;3.20;;
5416;SDS011;2731;50.754;12.990;2023-02-03T06:46:06;3.63;;;2.63;;
5416;SDS011;2731;50.754;12.990;2023-02-03T06:48:32;3.97;;;2.70;;
5416;SDS011;2731;50.754;12.990;2023-02-03T06:50:58;3.03;;;2.60;;
5416;SDS011;2731;50.754;12.990;2023-02-03T06:53:25;5.30;;;3.60;;
5416;SDS011;2731;50.754;12.990;2023-02-03T06:55:51;5.13;;;3.38;;
5416;SDS011;2731;50.754;12.990;2023-02-03T06:58:17;3.28;;;2.55;;
5416;SDS011;2731;50.754;12.990;2023-02-03T07:00:44;8.40;;;4.40;;
5416;SDS011;2731;50.754;12.990;2023-02-03T07:03:11;6.15;;;3.85;;
5416;SDS011;2731;50.754;12.990;2023-02-03T07:05:40;3.20;;;2.65;;
5416;SDS011;2731;50.754;12.990;2023-02-03T07:08:07;6.70;;;4.05;;
5416;SDS011;2731;50.754;12.990;2023-02-03T07:10:33;5.38;;;2.50;;
5416;SDS011;2731;50.754;12.990;2023-02-03T07:13:05;4.15;;;2.35;;
5416;SDS011;2731;50.754;12.990;2023-02-03T07:15:33;4.97;;;2.50;;
5416;SDS011;2731;50.754;12.990;2023-02-03T07:17:59;2.70;;;2.38;;
5416;SDS011;2731;50.754;12.990;2023-02-03T07:20:26;4.65;;;2.20;;
5416;SDS011;2731;50.754;12.990;2023-02-03T07:22:56;4.55;;;2.00;;
5416;SDS011;2731;50.754;12.990;2023-02-03T07:25:23;2.83;;;2.10;;
5416;SDS011;2731;50.754;12.990;2023-02-03T07:27:51;3.42;;;2.17;;
5416;SDS011;2731;50.754;12.990;2023-02-03T07:30:17;3.10;;;2.22;;
5416;SDS011;2731;50.754;12.990;2023-02-03T07:32:47;2.67;;;2.13;;
5416;SDS011;2731;50.754;12.990;2023-02-03T07:35:13;3.83;;;2.55;;
5416;SDS011;2731;50.754;12.990;2023-02-03T07:37:40;7.22;;;2.13;;
5416;SDS011;2731;50.754;12.990;2023-02-03T07:40:06;3.28;;;2.22;;
5416;SDS011;2731;50.754;12.990;2023-02-03T07:42:32;2.50;;;2.30;;
5416;SDS011;2731;50.754;12.990;2023-02-03T07:44:59;2.97;;;2.28;;
5416;SDS011;2731;50.754;12.990;2023-02-03T07:47:25;3.55;;;2.13;;
5416;SDS011;2731;50.754;12.990;2023-02-03T07:49:51;3.60;;;2.60;;
5416;SDS011;2731;50.754;12.990;2023-02-03T07:52:18;3.30;;;2.35;;
5416;SDS011;2731;50.754;12.990;2023-02-03T07:54:47;2.58;;;1.90;;
5416;SDS011;2731;50.754;12.990;2023-02-03T07:57:13;4.00;;;1.92;;
5416;SDS011;2731;50.754;12.990;2023-02-03T07:59:39;5.28;;;2.58;;
5416;SDS011;2731;50.754;12.990;2023-02-03T08:02:05;6.57;;;2.38;;
5416;SDS011;2731;50.754;12.990;2023-02-03T08:04:33;3.63;;;2.40;;
5416;SDS011;2731;50.754;12.990;2023-02-03T08:06:59;4.53;;;3.28;;
5416;SDS011;2731;50.754;12.990;2023-02-03T08:09:26;5.88;;;2.47;;
5416;SDS011;2731;50.754;12.990;2023-02-03T08:11:52;6.30;;;2.60;;
5416;SDS011;2731;50.754;12.990;2023-02-03T08:14:19;5.57;;;3.55;;
5416;SDS011;2731;50.754;12.990;2023-02-03T08:16:47;4.38;;;2.90;;
5416;SDS011;2731;50.754;12.990;2023-02-03T08:19:14;3.70;;;2.67;;
5416;SDS011;2731;50.754;12.990;2023-02-03T08:21:42;4.45;;;3.10;;
5416;SDS011;2731;50.754;12.990;2023-02-03T08:24:08;4.10;;;2.63;;
5416;SDS011;2731;50.754;12.990;2023-02-03T08:26:35;8.07;;;3.17;;
5416;SDS011;2731;50.754;12.990;2023-02-03T08:29:02;3.75;;;2.90;;
5416;SDS011;2731;50.754;12.990;2023-02-03T08:31:29;4.28;;;3.28;;
5416;SDS011;2731;50.754;12.990;2023-02-03T08:33:57;6.07;;;3.25;;
5416;SDS011;2731;50.754;12.990;2023-02-03T08:36:24;7.43;;;3.28;;
5416;SDS011;2731;50.754;12.990;2023-02-03T08:38:50;4.03;;;3.03;;
5416;SDS011;2731;50.754;12.990;2023-02-03T08:41:16;4.70;;;2.90;;
5416;SDS011;2731;50.754;12.990;2023-02-03T08:43:45;4.88;;;2.78;;
5416;SDS011;2731;50.754;12.990;2023-02-03T08:46:12;4.28;;;2.90;;
5416;SDS011;2731;50.754;12.990;2023-02-03T08:48:39;5.03;;;2.67;;
5416;SDS011;2731;50.754;12.990;2023-02-03T08:51:12;8.70;;;4.13;;
5416;SDS011;2731;50.754;12.990;2023-02-03T08:53:39;4.28;;;3.05;;
5416;SDS011;2731;50.754;12.990;2023-02-03T08:56:08;6.05;;;2.80;;
5416;SDS011;2731;50.754;12.990;2023-02-03T08:58:38;7.28;;;2.95;;
5416;SDS011;2731;50.754;12.990;2023-02-03T09:01:11;6.57;;;3.50;;
5416;SDS011;2731;50.754;12.990;2023-02-03T09:03:37;6.85;;;2.95;;
5416;SDS011;2731;50.754;12.990;2023-02-03T09:06:04;4.22;;;3.05;;
5416;SDS011;2731;50.754;12.990;2023-02-03T09:08:30;3.97;;;2.97;;
5416;SDS011;2731;50.754;12.990;2023-02-03T09:10:56;6.15;;;2.60;;
5416;SDS011;2731;50.754;12.990;2023-02-03T09:13:22;4.88;;;2.90;;
5416;SDS011;2731;50.754;12.990;2023-02-03T09:15:49;5.38;;;3.20;;
5416;SDS011;2731;50.754;12.990;2023-02-03T09:18:16;4.53;;;3.28;;
5416;SDS011;2731;50.754;12.990;2023-02-03T09:20:43;7.45;;;3.47;;
5416;SDS011;2731;50.754;12.990;2023-02-03T09:23:10;5.10;;;2.90;;
5416;SDS011;2731;50.754;12.990;2023-02-03T09:25:36;4.18;;;3.00;;
5416;SDS011;2731;50.754;12.990;2023-02-03T09:28:03;4.95;;;3.03;;
5416;SDS011;2731;50.754;12.990;2023-02-03T09:30:30;5.43;;;2.97;;
5416;SDS011;2731;50.754;12.990;2023-02-03T09:32:57;4.50;;;3.17;;
5416;SDS011;2731;50.754;12.990;2023-02-03T09:35:25;5.72;;;2.97;;
5416;SDS011;2731;50.754;12.990;2023-02-03T09:37:52;4.38;;;3.13;;
5416;SDS011;2731;50.754;12.990;2023-02-03T09:40:21;7.22;;;3.42;;
5416;SDS011;2731;50.754;12.990;2023-02-03T09:45:23;6.47;;;3.15;;
5416;SDS011;2731;50.754;12.990;2023-02-03T09:47:50;5.82;;;3.53;;
5416;SDS011;2731;50.754;12.990;2023-02-03T09:50:20;9.30;;;3.08;;
5416;SDS011;2731;50.754;12.990;2023-02-03T09:52:47;3.95;;;2.80;;
5416;SDS011;2731;50.754;12.990;2023-02-03T09:55:31;5.10;;;2.90;;
5416;SDS011;2731;50.754;12.990;2023-02-03T10:00:43;5.45;;;2.92;;
5416;SDS011;2731;50.754;12.990;2023-02-03T10:03:23;5.95;;;2.70;;
5416;SDS011;2731;50.754;12.990;2023-02-03T10:08:40;4.65;;;2.75;;
5416;SDS011;2731;50.754;12.990;2023-02-03T10:11:23;3.92;;;2.88;;
5416;SDS011;2731;50.754;12.990;2023-02-03T10:16:42;4.35;;;2.75;;
5416;SDS011;2731;50.754;12.990;2023-02-03T10:19:19;3.33;;;2.38;;
5416;SDS011;2731;50.754;12.990;2023-02-03T10:21:51;5.28;;;3.03;;
5416;SDS011;2731;50.754;12.990;2023-02-03T10:24:33;6.18;;;2.47;;
5416;SDS011;2731;50.754;12.990;2023-02-03T10:27:03;5.32;;;3.03;;
5416;SDS011;2731;50.754;12.990;2023-02-03T10:29:34;3.88;;;2.78;;
5416;SDS011;2731;50.754;12.990;2023-02-03T10:32:01;5.68;;;2.78;;
5416;SDS011;2731;50.754;12.990;2023-02-03T10:34:27;5.38;;;2.85;;
5416;SDS011;2731;50.754;12.990;2023-02-03T10:36:56;8.48;;;2.80;;
5416;SDS011;2731;50.754;12.990;2023-02-03T10:39:29;4.35;;;2.55;;
5416;SDS011;2731;50.754;12.990;2023-02-03T10:41:57;4.25;;;3.22;;
5416;SDS011;2731;50.754;12.990;2023-02-03T10:44:24;3.30;;;2.45;;
5416;SDS011;2731;50.754;12.990;2023-02-03T10:46:53;6.07;;;3.10;;
5416;SDS011;2731;50.754;12.990;2023-02-03T10:49:19;5.45;;;2.90;;
5416;SDS011;2731;50.754;12.990;2023-02-03T10:51:50;6.63;;;3.60;;
5416;SDS011;2731;50.754;12.990;2023-02-03T10:54:32;8.20;;;3.30;;
5416;SDS011;2731;50.754;12.990;2023-02-03T10:59:30;5.25;;;3.85;;
5416;SDS011;2731;50.754;12.990;2023-02-03T11:01:56;5.25;;;2.80;;
5416;SDS011;2731;50.754;12.990;2023-02-03T11:04:31;3.90;;;2.65;;
5416;SDS011;2731;50.754;12.990;2023-02-03T11:07:02;4.20;;;3.10;;
5416;SDS011;2731;50.754;12.990;2023-02-03T11:12:07;3.80;;;2.33;;
5416;SDS011;2731;50.754;12.990;2023-02-03T11:14:47;4.35;;;2.53;;
5416;SDS011;2731;50.754;12.990;2023-02-03T11:17:19;3.67;;;2.70;;
5416;SDS011;2731;50.754;12.990;2023-02-03T11:19:52;5.68;;;2.30;;
5416;SDS011;2731;50.754;12.990;2023-02-03T11:22:26;6.22;;;2.50;;
5416;SDS011;2731;50.754;12.990;2023-02-03T11:24:54;3.65;;;2.58;;
5416;SDS011;2731;50.754;12.990;2023-02-03T11:27:21;2.88;;;2.00;;
5416;SDS011;2731;50.754;12.990;2023-02-03T11:29:49;4.15;;;2.33;;
5416;SDS011;2731;50.754;12.990;2023-02-03T11:32:23;2.88;;;1.90;;
5416;SDS011;2731;50.754;12.990;2023-02-03T11:35:02;3.38;;;1.92;;
5416;SDS011;2731;50.754;12.990;2023-02-03T11:37:39;4.07;;;2.08;;
5416;SDS011;2731;50.754;12.990;2023-02-03T11:42:35;2.67;;;2.17;;
5416;SDS011;2731;50.754;12.990;2023-02-03T11:45:16;3.55;;;2.47;;
5416;SDS011;2731;50.754;12.990;2023-02-03T11:47:59;3.47;;;1.95;;
5416;SDS011;2731;50.754;12.990;2023-02-03T11:50:30;1.98;;;1.50;;
5416;SDS011;2731;50.754;12.990;2023-02-03T11:56:01;2.20;;;1.85;;
5416;SDS011;2731;50.754;12.990;2023-02-03T11:58:35;2.70;;;1.73;;
5416;SDS011;2731;50.754;12.990;2023-02-03T12:01:20;2.40;;;1.70;;
5416;SDS011;2731;50.754;12.990;2023-02-03T12:04:01;3.22;;;1.58;;
5416;SDS011;2731;50.754;12.990;2023-02-03T12:20:20;1.52;;;1.23;;
5416;SDS011;2731;50.754;12.990;2023-02-03T12:30:14;2.10;;;1.30;;
5416;SDS011;2731;50.754;12.990;2023-02-03T12:32:56;1.40;;;1.25;;
5416;SDS011;2731;50.754;12.990;2023-02-03T12:35:43;1.65;;;1.55;;
5416;SDS011;2731;50.754;12.990;2023-02-03T12:40:48;2.60;;;1.63;;
5416;SDS011;2731;50.754;12.990;2023-02-03T12:46:09;2.22;;;1.48;;
5416;SDS011;2731;50.754;12.990;2023-02-03T12:48:42;1.90;;;1.55;;
5416;SDS011;2731;50.754;12.990;2023-02-03T12:51:11;2.92;;;1.30;;
5416;SDS011;2731;50.754;12.990;2023-02-03T12:53:40;2.22;;;1.23;;
5416;SDS011;2731;50.754;12.990;2023-02-03T12:58:40;2.95;;;1.58;;
5416;SDS011;2731;50.754;12.990;2023-02-03T13:08:35;2.90;;;1.42;;
5416;SDS011;2731;50.754;12.990;2023-02-03T13:13:49;2.40;;;1.55;;
5416;SDS011;2731;50.754;12.990;2023-02-03T13:16:17;2.03;;;1.58;;
5416;SDS011;2731;50.754;12.990;2023-02-03T13:18:46;1.83;;;1.00;;
5416;SDS011;2731;50.754;12.990;2023-02-03T13:21:12;1.88;;;1.20;;
5416;SDS011;2731;50.754;12.990;2023-02-03T13:23:41;4.00;;;1.33;;
5416;SDS011;2731;50.754;12.990;2023-02-03T13:31:22;3.05;;;1.60;;
5416;SDS011;2731;50.754;12.990;2023-02-03T13:34:13;1.55;;;1.33;;
5416;SDS011;2731;50.754;12.990;2023-02-03T13:36:51;2.10;;;1.50;;
5416;SDS011;2731;50.754;12.990;2023-02-03T13:41:54;2.45;;;1.70;;
5416;SDS011;2731;50.754;12.990;2023-02-03T13:44:23;2.47;;;1.75;;
5416;SDS011;2731;50.754;12.990;2023-02-03T13:46:52;3.28;;;1.70;;
5416;SDS011;2731;50.754;12.990;2023-02-03T13:49:21;2.38;;;1.60;;
5416;SDS011;2731;50.754;12.990;2023-02-03T13:51:48;3.03;;;1.52;;
5416;SDS011;2731;50.754;12.990;2023-02-03T13:54:23;2.63;;;1.70;;
5416;SDS011;2731;50.754;12.990;2023-02-03T13:57:03;1.27;;;1.17;;
5416;SDS011;2731;50.754;12.990;2023-02-03T14:12:36;5.15;;;1.30;;
5416;SDS011;2731;50.754;12.990;2023-02-03T14:15:46;1.55;;;0.90;;
5416;SDS011;2731;50.754;12.990;2023-02-03T14:20:41;2.95;;;1.45;;
5416;SDS011;2731;50.754;12.990;2023-02-03T14:23:10;5.93;;;2.13;;
5416;SDS011;2731;50.754;12.990;2023-02-03T14:25:48;5.93;;;1.08;;
5416;SDS011;2731;50.754;12.990;2023-02-03T14:28:26;4.05;;;0.90;;
5416;SDS011;2731;50.754;12.990;2023-02-03T14:31:13;2.58;;;1.10;;
5416;SDS011;2731;50.754;12.990;2023-02-03T14:38:53;1.92;;;1.10;;
5416;SDS011;2731;50.754;12.990;2023-02-03T14:41:33;4.32;;;1.20;;
5416;SDS011;2731;50.754;12.990;2023-02-03T14:52:24;7.60;;;1.67;;
5416;SDS011;2731;50.754;12.990;2023-02-03T14:57:41;6.18;;;1.33;;
5416;SDS011;2731;50.754;12.990;2023-02-03T15:07:54;8.20;;;1.23;;
5416;SDS011;2731;50.754;12.990;2023-02-03T15:10:22;6.45;;;1.30;;
5416;SDS011;2731;50.754;12.990;2023-02-03T15:12:51;8.45;;;1.35;;
5416;SDS011;2731;50.754;12.990;2023-02-03T15:15:19;6.53;;;1.83;;
5416;SDS011;2731;50.754;12.990;2023-02-03T15:17:49;9.93;;;2.17;;
5416;SDS011;2731;50.754;12.990;2023-02-03T15:23:00;7.13;;;1.90;;
5416;SDS011;2731;50.754;12.990;2023-02-03T15:25:28;17.35;;;2.78;;
5416;SDS011;2731;50.754;12.990;2023-02-03T15:28:19;4.82;;;1.38;;
5416;SDS011;2731;50.754;12.990;2023-02-03T15:30:43;9.40;;;1.35;;
5416;SDS011;2731;50.754;12.990;2023-02-03T15:33:13;10.27;;;1.70;;
5416;SDS011;2731;50.754;12.990;2023-02-03T15:35:40;9.85;;;2.20;;
5416;SDS011;2731;50.754;12.990;2023-02-03T15:40:52;7.82;;;1.42;;
5416;SDS011;2731;50.754;12.990;2023-02-03T15:51:06;8.48;;;2.30;;
5416;SDS011;2731;50.754;12.990;2023-02-03T15:53:36;11.25;;;2.45;;
5416;SDS011;2731;50.754;12.990;2023-02-03T15:56:05;11.38;;;1.75;;
5416;SDS011;2731;50.754;12.990;2023-02-03T15:58:43;12.07;;;2.08;;
5416;SDS011;2731;50.754;12.990;2023-02-03T16:01:10;7.80;;;1.75;;
5416;SDS011;2731;50.754;12.990;2023-02-03T16:03:40;8.48;;;2.33;;
5416;SDS011;2731;50.754;12.990;2023-02-03T16:06:11;12.15;;;2.35;;
5416;SDS011;2731;50.754;12.990;2023-02-03T16:11:23;8.57;;;1.80;;
5416;SDS011;2731;50.754;12.990;2023-02-03T16:16:20;9.00;;;2.00;;
5416;SDS011;2731;50.754;12.990;2023-02-03T16:18:54;10.52;;;3.00;;
5416;SDS011;2731;50.754;12.990;2023-02-03T16:21:28;14.15;;;2.33;;
5416;SDS011;2731;50.754;12.990;2023-02-03T16:23:56;12.32;;;2.67;;
5416;SDS011;2731;50.754;12.990;2023-02-03T16:26:23;14.32;;;2.90;;
5416;SDS011;2731;50.754;12.990;2023-02-03T16:31:43;8.60;;;2.28;;
5416;SDS011;2731;50.754;12.990;2023-02-03T16:34:29;10.55;;;2.42;;
5416;SDS011;2731;50.754;12.990;2023-02-03T16:37:31;9.40;;;4.57;;
5416;SDS011;2731;50.754;12.990;2023-02-03T16:40:18;13.95;;;4.43;;
5416;SDS011;2731;50.754;12.990;2023-02-03T16:43:03;17.30;;;3.22;;
5416;SDS011;2731;50.754;12.990;2023-02-03T16:45:54;14.88;;;3.00;;
5416;SDS011;2731;50.754;12.990;2023-02-03T16:48:40;10.30;;;3.25;;
5416;SDS011;2731;50.754;12.990;2023-02-03T16:51:25;9.98;;;3.33;;
5416;SDS011;2731;50.754;12.990;2023-02-03T16:53:56;19.02;;;3.15;;
5416;SDS011;2731;50.754;12.990;2023-02-03T16:56:23;30.13;;;4.07;;
5416;SDS011;2731;50.754;12.990;2023-02-03T16:58:48;8.25;;;2.47;;
5416;SDS011;2731;50.754;12.990;2023-02-03T17:01:16;11.20;;;2.70;;
5416;SDS011;2731;50.754;12.990;2023-02-03T17:03:49;13.88;;;3.83;;
5416;SDS011;2731;50.754;12.990;2023-02-03T17:06:19;14.50;;;2.70;;
5416;SDS011;2731;50.754;12.990;2023-02-03T17:08:46;8.98;;;2.72;;
5416;SDS011;2731;50.754;12.990;2023-02-03T17:11:17;18.70;;;2.60;;
5416;SDS011;2731;50.754;12.990;2023-02-03T17:13:44;10.32;;;3.78;;
5416;SDS011;2731;50.754;12.990;2023-02-03T17:16:20;15.27;;;3.08;;
5416;SDS011;2731;50.754;12.990;2023-02-03T17:18:48;9.43;;;2.33;;
5416;SDS011;2731;50.754;12.990;2023-02-03T17:21:15;14.07;;;2.80;;
5416;SDS011;2731;50.754;12.990;2023-02-03T17:23:41;15.30;;;2.42;;
5416;SDS011;2731;50.754;12.990;2023-02-03T17:26:07;19.70;;;2.35;;
5416;SDS011;2731;50.754;12.990;2023-02-03T17:28:34;12.52;;;2.20;;
5416;SDS011;2731;50.754;12.990;2023-02-03T17:31:01;16.83;;;3.80;;
5416;SDS011;2731;50.754;12.990;2023-02-03T17:33:29;12.45;;;2.35;;
5416;SDS011;2731;50.754;12.990;2023-02-03T17:36:17;9.30;;;2.42;;
5416;SDS011;2731;50.754;12.990;2023-02-03T17:38:46;15.60;;;2.03;;
5416;SDS011;2731;50.754;12.990;2023-02-03T17:41:14;17.77;;;2.33;;
5416;SDS011;2731;50.754;12.990;2023-02-03T17:43:43;15.13;;;3.60;;
5416;SDS011;2731;50.754;12.990;2023-02-03T17:46:10;10.85;;;2.03;;
5416;SDS011;2731;50.754;12.990;2023-02-03T17:48:37;15.48;;;2.88;;
5416;SDS011;2731;50.754;12.990;2023-02-03T17:51:10;9.63;;;2.92;;
5416;SDS011;2731;50.754;12.990;2023-02-03T17:53:40;11.43;;;2.67;;
5416;SDS011;2731;50.754;12.990;2023-02-03T17:56:09;13.32;;;3.05;;
5416;SDS011;2731;50.754;12.990;2023-02-03T17:58:37;12.43;;;2.88;;